To NAV CANADA Home Page Login to a new session Search on AWWS site Feedback and Comments Disclaimer Vers la page française équivalente Tips FAQ What's new on the site To the Forecasts and Observations / NOTAM section To "File a Flight Plan" website Publications and other links Update of the User's profile FIC Telephone Numbers My Weather Data Folder Route Weather Data Regional Weather Data Local Weather Data To the Forecasts and Observations / NOTAM section
Request Generated 09/05/2015 at 07:41:38 UTC . Weather information available at that time is displayed.

METAR/TAF

THUNDER BAY/ON    

METAR CYQT 050700Z 05004KT 360V070 15SM FEW260 15/14 A3003 RMK CI2
SLP170 DENSITY ALT 700FT=
METAR CYQT 050600Z 07004KT 15SM SCT250 16/14 A3003 RMK CI4 SLP172
DENSITY ALT 700FT=
METAR CYQT 050500Z 08003KT 350V140 15SM FEW260 15/13 A3004 RMK CI1
SLP175=

TAF CYQT 050738Z 0508/0520 09005KT P6SM FEW006 TEMPO 0508/0510 2SM BR
PROB40 0508/0510 1SM BR VV002
FM051000 VRB03KT 1/2SM FG VV002 TEMPO 0510/0512 6SM BR BKN006
PROB30 0510/0512 1/4SM FG VV001
FM051200 VRB03KT 1/2SM FG VV002 TEMPO 0512/0514 6SM BR BKN006
PROB30 0512/0514 VRB15G25KT 1/4SM TSRA FG VV001
FM051400 13008KT P6SM SCT006 BKN060 TEMPO 0514/0516 2SM BR BKN006
FM051600 13008KT P6SM BKN080
RMK NXT FCST BY 051400Z=
Your time UTC time
Weather data provided by Environment Canada and NAV CANADA